createdAt,value
2023-02-25T00:01:33.793Z,2.50
2023-02-25T00:04:00.159Z,2.08
2023-02-25T00:06:26.903Z,2.13
2023-02-25T00:08:54.244Z,1.80
2023-02-25T00:11:20.946Z,2.08
2023-02-25T00:13:47.375Z,2.17
2023-02-25T00:16:14.119Z,2.08
2023-02-25T00:18:44.131Z,2.80
2023-02-25T00:21:12.764Z,1.70
2023-02-25T00:23:39.121Z,1.48
2023-02-25T00:26:06.927Z,1.95
2023-02-25T00:28:33.614Z,2.03
2023-02-25T00:31:00.107Z,1.45
2023-02-25T00:33:26.910Z,2.00
2023-02-25T00:35:53.302Z,1.48
2023-02-25T00:38:19.644Z,1.33
2023-02-25T00:40:46.028Z,1.80
2023-02-25T00:43:12.391Z,1.48
2023-02-25T00:45:40.473Z,1.73
2023-02-25T00:48:07.390Z,1.83
2023-02-25T00:50:34.228Z,1.52
2023-02-25T00:53:00.560Z,1.63
2023-02-25T00:55:33.595Z,1.55
2023-02-25T00:58:01.359Z,1.40
2023-02-25T01:00:28.452Z,1.00
2023-02-25T01:02:56.043Z,1.08
2023-02-25T01:05:22.519Z,1.40
2023-02-25T01:07:48.997Z,1.27
2023-02-25T01:10:15.522Z,1.40
2023-02-25T01:12:41.935Z,1.13
2023-02-25T01:15:08.698Z,1.60
2023-02-25T01:17:35.038Z,1.48
2023-02-25T01:20:01.355Z,1.80
2023-02-25T01:22:27.730Z,1.65
2023-02-25T01:24:57.188Z,2.08
2023-02-25T01:27:23.623Z,2.08
2023-02-25T01:29:50.022Z,1.40
2023-02-25T01:32:16.625Z,1.30
2023-02-25T01:34:43.184Z,1.67
2023-02-25T01:37:09.826Z,1.83
2023-02-25T01:39:43.931Z,1.60
2023-02-25T01:45:31.468Z,1.35
2023-02-25T01:48:01.372Z,1.80
2023-02-25T01:51:07.308Z,2.80
2023-02-25T01:53:35.420Z,1.67
2023-02-25T01:56:08.929Z,1.90
2023-02-25T01:58:35.375Z,1.67
2023-02-25T02:01:29.263Z,1.65
2023-02-25T02:04:12.975Z,1.67
2023-02-25T02:07:15.846Z,1.27
2023-02-25T02:09:56.277Z,1.33
2023-02-25T02:12:31.439Z,2.55
2023-02-25T02:14:58.907Z,1.63
2023-02-25T02:17:44.025Z,1.75
2023-02-25T02:20:23.300Z,1.67
2023-02-25T02:22:58.705Z,1.73
2023-02-25T02:25:44.163Z,1.63
2023-02-25T02:28:10.439Z,1.65
2023-02-25T02:30:36.880Z,2.35
2023-02-25T02:33:12.790Z,1.50
2023-02-25T02:35:57.224Z,1.60
2023-02-25T02:38:30.299Z,1.88
2023-02-25T02:40:56.591Z,1.33
2023-02-25T02:43:32.135Z,1.30
2023-02-25T02:46:00.096Z,1.83
2023-02-25T02:48:39.120Z,1.05
2023-02-25T02:51:07.970Z,2.17
2023-02-25T02:53:44.280Z,2.13
2023-02-25T02:56:13.360Z,1.50
2023-02-25T02:58:48.058Z,1.70
2023-02-25T03:01:18.146Z,2.75
2023-02-25T03:03:46.826Z,2.08
2023-02-25T03:06:17.043Z,2.60
2023-02-25T03:09:03.661Z,1.85
2023-02-25T03:11:30.138Z,1.58
2023-02-25T03:13:56.629Z,1.50
2023-02-25T03:16:37.017Z,1.67
2023-02-25T03:19:10.783Z,2.38
2023-02-25T03:21:41.271Z,2.63
2023-02-25T03:24:09.104Z,1.60
2023-02-25T03:26:36.462Z,2.03
2023-02-25T03:29:02.830Z,2.42
2023-02-25T03:31:38.737Z,1.70
2023-02-25T03:34:19.108Z,2.58
2023-02-25T03:36:49.122Z,1.85
2023-02-25T03:39:19.553Z,1.80
2023-02-25T03:41:48.893Z,2.50
2023-02-25T03:44:17.010Z,1.60
2023-02-25T03:46:45.105Z,2.22
2023-02-25T03:49:15.571Z,2.20
2023-02-25T03:51:44.640Z,1.60
2023-02-25T03:54:11.101Z,1.45
2023-02-25T03:56:42.168Z,3.10
2023-02-25T03:59:08.495Z,2.55
2023-02-25T04:01:35.472Z,2.22
2023-02-25T04:04:01.840Z,2.03
2023-02-25T04:06:28.129Z,1.80
2023-02-25T04:08:54.535Z,1.83
2023-02-25T04:11:20.955Z,1.85
2023-02-25T04:13:47.296Z,2.63
2023-02-25T04:16:14.381Z,1.95
2023-02-25T04:18:40.780Z,2.33
2023-02-25T04:21:07.304Z,2.20
2023-02-25T04:23:34.006Z,1.80
2023-02-25T04:26:00.454Z,1.80
2023-02-25T04:28:26.806Z,1.70
2023-02-25T04:30:53.247Z,1.90
2023-02-25T04:33:19.692Z,1.50
2023-02-25T04:35:46.208Z,1.98
2023-02-25T04:38:12.551Z,1.77
2023-02-25T04:40:39.006Z,2.70
2023-02-25T04:43:05.408Z,1.58
2023-02-25T04:45:31.764Z,1.50
2023-02-25T04:47:58.231Z,1.92
2023-02-25T04:50:25.124Z,1.60
2023-02-25T04:52:52.066Z,2.42
2023-02-25T04:55:18.607Z,1.65
2023-02-25T04:57:45.010Z,1.77
2023-02-25T05:00:20.450Z,1.77
2023-02-25T05:02:47.553Z,1.98
2023-02-25T05:05:14.471Z,2.33
2023-02-25T05:07:40.897Z,1.60
2023-02-25T05:10:08.745Z,1.48
2023-02-25T05:12:35.095Z,2.40
2023-02-25T05:15:04.028Z,1.52
2023-02-25T05:17:30.835Z,2.35
2023-02-25T05:19:58.512Z,2.10
2023-02-25T05:22:25.590Z,2.03
2023-02-25T05:24:51.998Z,2.08
2023-02-25T05:27:18.485Z,1.58
2023-02-25T05:29:44.976Z,1.85
2023-02-25T05:32:11.472Z,1.52
2023-02-25T05:34:38.036Z,2.03
2023-02-25T05:37:07.482Z,1.80
2023-02-25T05:39:47.035Z,1.65
2023-02-25T05:42:29.061Z,1.98
2023-02-25T05:44:55.362Z,1.75
2023-02-25T05:47:21.774Z,2.10
2023-02-25T05:49:51.707Z,1.70
2023-02-25T05:52:18.112Z,1.40
2023-02-25T05:54:44.732Z,1.98
2023-02-25T05:57:14.266Z,2.03
2023-02-25T05:59:40.640Z,3.40
2023-02-25T06:02:09.333Z,2.60
2023-02-25T06:04:35.947Z,2.03
2023-02-25T06:07:03.256Z,2.60
2023-02-25T06:09:29.680Z,2.75
2023-02-25T06:11:56.108Z,2.22
2023-02-25T06:14:22.515Z,1.80
2023-02-25T06:16:48.944Z,2.33
2023-02-25T06:19:15.366Z,1.83
2023-02-25T06:21:41.685Z,2.10
2023-02-25T06:24:08.696Z,1.67
2023-02-25T06:26:35.547Z,2.38
2023-02-25T06:29:01.970Z,1.98
2023-02-25T06:31:28.364Z,3.15
2023-02-25T06:33:55.143Z,1.80
2023-02-25T06:36:22.065Z,1.65
2023-02-25T06:38:48.729Z,2.70
2023-02-25T06:41:16.761Z,2.45
2023-02-25T06:43:43.921Z,2.33
2023-02-25T06:46:11.779Z,1.95
2023-02-25T06:48:38.220Z,2.35
2023-02-25T06:51:09.074Z,2.38
2023-02-25T06:56:01.759Z,2.30
2023-02-25T06:58:28.047Z,1.92
2023-02-25T07:00:54.452Z,2.35
2023-02-25T07:03:23.950Z,2.03
2023-02-25T07:05:50.387Z,1.90
2023-02-25T07:08:16.860Z,2.22
2023-02-25T07:10:43.249Z,2.30
2023-02-25T07:13:10.544Z,1.92
2023-02-25T07:15:36.931Z,2.30
2023-02-25T07:18:04.027Z,1.38
2023-02-25T07:20:30.425Z,1.70
2023-02-25T07:22:56.830Z,1.65
2023-02-25T07:25:23.636Z,1.58
2023-02-25T07:27:50.027Z,1.50
2023-02-25T07:30:16.441Z,1.25
2023-02-25T07:32:43.063Z,1.58
2023-02-25T07:35:10.429Z,1.70
2023-02-25T07:37:37.590Z,2.10
2023-02-25T07:40:04.874Z,1.75
2023-02-25T07:42:31.377Z,1.50
2023-02-25T07:44:59.246Z,1.30
2023-02-25T07:47:26.203Z,1.65
2023-02-25T07:49:52.531Z,1.50
2023-02-25T07:52:19.249Z,2.83
2023-02-25T07:54:52.414Z,2.15
2023-02-25T07:57:26.671Z,2.40
2023-02-25T07:59:52.992Z,1.70
2023-02-25T08:02:19.403Z,2.10
2023-02-25T08:04:45.840Z,1.90
2023-02-25T08:07:12.598Z,2.05
2023-02-25T08:09:38.912Z,1.45
2023-02-25T08:12:05.254Z,1.75
2023-02-25T08:14:31.607Z,2.08
2023-02-25T08:16:57.975Z,2.58
2023-02-25T08:19:24.374Z,1.73
2023-02-25T08:21:50.849Z,2.25
2023-02-25T08:24:20.466Z,2.33
2023-02-25T08:26:47.508Z,2.78
2023-02-25T08:29:13.880Z,2.90
2023-02-25T08:31:40.552Z,2.20
2023-02-25T08:34:07.447Z,2.25
2023-02-25T08:36:37.171Z,3.25
2023-02-25T08:39:04.181Z,3.15
2023-02-25T08:41:30.792Z,2.38
2023-02-25T08:43:57.824Z,2.15
2023-02-25T08:46:25.755Z,1.80
2023-02-25T08:48:53.271Z,2.10
2023-02-25T08:51:20.401Z,2.30
2023-02-25T08:53:47.037Z,2.05
2023-02-25T08:56:14.240Z,1.52
2023-02-25T08:58:40.894Z,1.60
2023-02-25T09:01:13.043Z,1.92
2023-02-25T09:03:55.007Z,2.03
2023-02-25T09:06:23.140Z,2.10
2023-02-25T09:08:50.336Z,1.90
2023-02-25T09:11:16.964Z,1.73
2023-02-25T09:13:43.505Z,1.75
2023-02-25T09:16:10.515Z,1.90
2023-02-25T09:18:36.942Z,1.90
2023-02-25T09:21:03.503Z,1.20
2023-02-25T09:23:30.008Z,0.93
2023-02-25T09:25:56.367Z,1.08
2023-02-25T09:28:24.521Z,1.15
2023-02-25T09:30:50.982Z,1.15
2023-02-25T09:33:17.352Z,1.65
2023-02-25T09:35:43.714Z,1.40
2023-02-25T09:38:10.294Z,1.30
2023-02-25T09:40:37.452Z,1.25
2023-02-25T09:43:21.322Z,0.70
2023-02-25T09:45:49.254Z,1.27
2023-02-25T09:48:27.001Z,1.20
2023-02-25T09:50:56.980Z,1.50
2023-02-25T09:53:27.773Z,0.90
2023-02-25T09:55:54.172Z,1.17
2023-02-25T09:58:24.332Z,0.70
2023-02-25T10:00:57.699Z,1.50
2023-02-25T10:03:42.957Z,1.33
2023-02-25T10:06:27.828Z,0.90
2023-02-25T10:08:57.533Z,1.13
2023-02-25T10:11:31.079Z,1.20
2023-02-25T10:14:17.722Z,1.23
2023-02-25T10:17:07.576Z,1.27
2023-02-25T10:19:34.497Z,1.30
2023-02-25T10:22:06.347Z,1.00
2023-02-25T10:24:41.100Z,0.90
2023-02-25T10:27:16.762Z,1.58
2023-02-25T10:29:51.067Z,1.23
2023-02-25T10:32:19.804Z,1.55
2023-02-25T10:34:47.160Z,0.80
2023-02-25T10:37:18.250Z,0.93
2023-02-25T10:39:48.452Z,0.70
2023-02-25T10:42:16.248Z,0.70
2023-02-25T10:44:44.588Z,0.82
2023-02-25T10:47:13.875Z,1.30
2023-02-25T10:49:40.217Z,1.10
2023-02-25T10:52:06.941Z,0.93
2023-02-25T10:54:34.822Z,0.82
2023-02-25T10:57:02.448Z,2.50
2023-02-25T10:59:31.516Z,1.48
2023-02-25T11:01:58.971Z,1.33
2023-02-25T11:04:29.055Z,1.38
2023-02-25T11:06:56.020Z,1.55
2023-02-25T11:09:22.738Z,1.50
2023-02-25T11:11:59.840Z,1.27
2023-02-25T11:14:30.631Z,1.55
2023-02-25T11:17:08.026Z,0.90
2023-02-25T11:19:43.577Z,1.17
2023-02-25T11:22:15.440Z,1.02
2023-02-25T11:24:42.940Z,1.38
2023-02-25T11:27:23.616Z,1.17
2023-02-25T11:29:50.558Z,1.10
2023-02-25T11:32:18.888Z,1.35
2023-02-25T11:35:04.980Z,0.90
2023-02-25T11:37:44.573Z,1.80
2023-02-25T11:40:21.266Z,1.23
2023-02-25T11:43:16.991Z,1.30
2023-02-25T11:46:00.297Z,1.40
2023-02-25T11:48:29.971Z,1.20
2023-02-25T11:51:06.280Z,1.42
2023-02-25T11:53:32.635Z,1.50
2023-02-25T11:56:04.574Z,1.25
2023-02-25T11:58:33.989Z,1.33
2023-02-25T12:01:00.478Z,1.30
2023-02-25T12:03:50.705Z,1.20
2023-02-25T12:06:20.270Z,1.00
2023-02-25T12:08:58.632Z,1.25
2023-02-25T12:11:25.043Z,1.08
2023-02-25T12:13:51.963Z,1.20
2023-02-25T12:16:18.397Z,1.30
2023-02-25T12:19:14.211Z,1.20
2023-02-25T12:21:55.464Z,2.00
2023-02-25T12:24:21.814Z,1.73
2023-02-25T12:26:53.910Z,1.88
2023-02-25T12:29:25.463Z,1.48
2023-02-25T12:32:08.432Z,1.10
2023-02-25T12:34:34.786Z,2.00
2023-02-25T12:37:07.187Z,1.38
2023-02-25T12:40:00.045Z,1.70
2023-02-25T12:42:38.634Z,1.33
2023-02-25T12:45:20.613Z,1.08
2023-02-25T12:47:53.153Z,1.23
2023-02-25T12:50:34.351Z,2.72
2023-02-25T12:53:03.927Z,4.13
2023-02-25T12:55:36.324Z,1.65
2023-02-25T12:58:21.441Z,1.30
2023-02-25T13:00:54.047Z,1.30
2023-02-25T13:03:27.582Z,1.45
2023-02-25T13:06:07.619Z,1.13
2023-02-25T13:09:03.681Z,1.40
2023-02-25T13:12:10.660Z,1.15
2023-02-25T13:14:55.862Z,1.00
2023-02-25T13:17:22.131Z,1.88
2023-02-25T13:19:54.464Z,1.30
2023-02-25T13:22:23.988Z,1.20
2023-02-25T13:25:10.653Z,1.80
2023-02-25T13:27:55.536Z,1.30
2023-02-25T13:30:40.277Z,1.70
2023-02-25T13:33:25.369Z,1.60
2023-02-25T13:35:56.241Z,1.50
2023-02-25T13:41:02.747Z,1.42
2023-02-25T13:43:38.303Z,1.00
2023-02-25T13:46:10.922Z,1.40
2023-02-25T13:48:43.570Z,1.98
2023-02-25T13:51:28.857Z,1.70
2023-02-25T13:54:06.655Z,2.13
2023-02-25T13:56:43.799Z,1.27
2023-02-25T13:59:28.694Z,1.08
2023-02-25T14:02:13.962Z,1.00
2023-02-25T14:04:53.208Z,1.40
2023-02-25T14:07:26.195Z,1.30
2023-02-25T14:10:12.365Z,1.30
2023-02-25T14:12:57.667Z,1.20
2023-02-25T14:15:36.189Z,1.30
2023-02-25T14:18:15.410Z,1.70
2023-02-25T14:20:41.813Z,1.50
2023-02-25T14:23:27.155Z,1.10
2023-02-25T14:26:13.303Z,0.90
2023-02-25T14:28:45.459Z,1.30
2023-02-25T14:31:31.933Z,1.42
2023-02-25T14:34:30.829Z,1.55
2023-02-25T14:36:57.141Z,1.92
2023-02-25T14:39:32.776Z,1.77
2023-02-25T14:42:15.918Z,1.30
2023-02-25T14:45:01.176Z,1.00
2023-02-25T14:47:30.401Z,1.45
2023-02-25T14:50:26.179Z,1.58
2023-02-25T14:52:55.449Z,1.38
2023-02-25T14:55:25.210Z,1.52
2023-02-25T14:58:10.491Z,1.27
2023-02-25T15:00:46.555Z,1.17
2023-02-25T15:03:18.833Z,1.10
2023-02-25T15:05:45.395Z,1.67
2023-02-25T15:08:11.735Z,1.25
2023-02-25T15:10:38.962Z,1.35
2023-02-25T15:13:24.867Z,0.75
2023-02-25T15:15:54.492Z,1.20
2023-02-25T15:18:29.691Z,0.90
2023-02-25T15:20:56.145Z,1.00
2023-02-25T15:23:41.021Z,1.20
2023-02-25T15:26:13.377Z,1.17
2023-02-25T15:28:40.842Z,1.02
2023-02-25T15:31:28.495Z,1.33
2023-02-25T15:34:15.073Z,1.58
2023-02-25T15:36:44.872Z,1.20
2023-02-25T15:39:31.779Z,1.10
2023-02-25T15:41:59.340Z,1.15
2023-02-25T15:44:32.126Z,1.10
2023-02-25T15:47:25.474Z,1.00
2023-02-25T15:49:52.524Z,1.48
2023-02-25T15:52:39.194Z,1.42
2023-02-25T15:55:19.574Z,0.82
2023-02-25T15:57:46.052Z,0.80
2023-02-25T16:00:31.311Z,1.02
2023-02-25T16:03:01.648Z,0.82
2023-02-25T16:05:33.339Z,1.00
2023-02-25T16:08:07.059Z,1.00
2023-02-25T16:10:36.114Z,1.70
2023-02-25T16:13:02.903Z,1.25
2023-02-25T16:15:40.393Z,1.30
2023-02-25T16:18:14.181Z,1.50
2023-02-25T16:20:49.365Z,1.73
2023-02-25T16:23:16.419Z,1.10
2023-02-25T16:26:00.121Z,1.02
2023-02-25T16:28:44.914Z,1.00
2023-02-25T16:31:11.282Z,1.33
2023-02-25T16:33:46.655Z,1.30
2023-02-25T16:36:29.763Z,0.90
2023-02-25T16:39:07.303Z,1.38
2023-02-25T16:41:38.674Z,2.75
2023-02-25T16:44:06.156Z,1.58
2023-02-25T16:46:34.445Z,1.90
2023-02-25T16:49:07.624Z,2.20
2023-02-25T16:51:34.476Z,2.03
2023-02-25T16:54:09.362Z,1.58
2023-02-25T16:56:36.217Z,1.50
2023-02-25T16:59:05.689Z,1.33
2023-02-25T17:01:34.206Z,2.25
2023-02-25T17:04:01.944Z,2.67
2023-02-25T17:06:28.306Z,2.10
2023-02-25T17:08:54.979Z,2.92
2023-02-25T17:11:22.788Z,1.80
2023-02-25T17:13:51.269Z,1.77
2023-02-25T17:16:21.372Z,1.67
2023-02-25T17:18:53.485Z,1.33
2023-02-25T17:21:23.912Z,1.50
2023-02-25T17:23:51.285Z,1.90
2023-02-25T17:26:18.434Z,1.58
2023-02-25T17:28:46.243Z,1.35
2023-02-25T17:31:18.157Z,1.30
2023-02-25T17:33:51.843Z,1.33
2023-02-25T17:36:21.967Z,1.30
2023-02-25T17:38:50.075Z,1.65
2023-02-25T17:41:19.857Z,1.48
2023-02-25T17:43:46.260Z,2.10
2023-02-25T17:46:37.829Z,2.15
2023-02-25T17:49:18.494Z,3.00
2023-02-25T17:51:45.056Z,2.90
2023-02-25T17:54:16.597Z,2.47
2023-02-25T17:56:42.898Z,2.90
2023-02-25T17:59:12.220Z,2.83
2023-02-25T18:01:44.877Z,3.00
2023-02-25T18:04:20.462Z,2.55
2023-02-25T18:06:47.118Z,2.33
2023-02-25T18:09:25.682Z,2.60
2023-02-25T18:11:53.562Z,2.33
2023-02-25T18:14:39.676Z,2.63
2023-02-25T18:17:25.203Z,2.97
2023-02-25T18:19:51.883Z,3.30
2023-02-25T18:22:26.044Z,4.10
2023-02-25T18:24:54.369Z,4.78
2023-02-25T18:27:29.228Z,4.00
2023-02-25T18:30:24.974Z,4.15
2023-02-25T18:32:52.012Z,4.03
2023-02-25T18:35:18.856Z,3.80
2023-02-25T18:37:46.148Z,6.35
2023-02-25T18:40:38.815Z,6.88
2023-02-25T18:43:05.439Z,5.45
2023-02-25T18:45:32.863Z,4.63
2023-02-25T18:48:02.099Z,4.18
2023-02-25T18:50:32.431Z,3.70
2023-02-25T18:52:59.327Z,3.53
2023-02-25T18:55:27.161Z,3.80
2023-02-25T18:57:53.526Z,3.58
2023-02-25T19:00:21.161Z,3.67
2023-02-25T19:02:51.909Z,5.22
2023-02-25T19:05:20.063Z,5.20
2023-02-25T19:07:46.603Z,7.07
2023-02-25T19:10:20.965Z,8.05
2023-02-25T19:12:49.575Z,8.40
2023-02-25T19:15:17.683Z,8.65
2023-02-25T19:17:44.418Z,8.43
2023-02-25T19:20:12.634Z,8.10
2023-02-25T19:22:47.483Z,8.18
2023-02-25T19:25:24.472Z,8.13
2023-02-25T19:27:51.366Z,9.02
2023-02-25T19:30:18.582Z,8.82
2023-02-25T19:32:47.710Z,8.98
2023-02-25T19:35:14.047Z,8.00
2023-02-25T19:37:41.288Z,7.88
2023-02-25T19:40:10.248Z,7.97
2023-02-25T19:42:39.969Z,7.13
2023-02-25T19:45:07.932Z,6.97
2023-02-25T19:47:34.678Z,7.45
2023-02-25T19:50:02.055Z,6.93
2023-02-25T19:52:33.195Z,6.80
2023-02-25T19:55:00.110Z,7.10
2023-02-25T19:57:26.580Z,7.30
2023-02-25T19:59:52.934Z,7.63
2023-02-25T20:02:19.250Z,7.32
2023-02-25T20:04:45.595Z,7.93
2023-02-25T20:07:12.088Z,9.02
2023-02-25T20:09:38.487Z,8.52
2023-02-25T20:12:05.076Z,7.72
2023-02-25T20:14:32.982Z,6.25
2023-02-25T20:17:00.914Z,5.07
2023-02-25T20:19:30.403Z,4.75
2023-02-25T20:21:57.165Z,5.03
2023-02-25T20:24:23.572Z,5.28
2023-02-25T20:26:50.270Z,5.40
2023-02-25T20:29:16.831Z,6.60
2023-02-25T20:31:43.248Z,6.40
2023-02-25T20:34:13.248Z,6.57
2023-02-25T20:36:54.497Z,6.80
2023-02-25T20:39:33.475Z,6.30
2023-02-25T20:41:59.946Z,6.00
2023-02-25T20:44:26.538Z,6.03
2023-02-25T20:46:52.914Z,6.47
2023-02-25T20:49:19.567Z,6.50
2023-02-25T20:51:47.420Z,6.22
2023-02-25T20:54:14.732Z,6.03
2023-02-25T20:56:41.371Z,5.50
2023-02-25T20:59:08.510Z,4.85
2023-02-25T21:01:35.019Z,6.57
2023-02-25T21:04:01.431Z,7.82
2023-02-25T21:06:28.051Z,9.52
2023-02-25T21:08:54.654Z,10.63
2023-02-25T21:11:21.924Z,10.02
2023-02-25T21:13:48.768Z,11.50
2023-02-25T21:16:15.888Z,9.65
2023-02-25T21:18:45.621Z,9.00
2023-02-25T21:21:13.419Z,8.18
2023-02-25T21:23:40.326Z,7.65
2023-02-25T21:26:08.424Z,7.95
2023-02-25T21:28:35.490Z,8.18
2023-02-25T21:31:04.279Z,9.35
2023-02-25T21:33:30.666Z,8.80
2023-02-25T21:35:57.069Z,6.85
2023-02-25T21:38:23.353Z,6.22
2023-02-25T21:40:50.076Z,5.68
2023-02-25T21:43:16.578Z,6.22
2023-02-25T21:45:53.012Z,5.65
2023-02-25T21:48:19.511Z,5.13
2023-02-25T21:50:46.149Z,5.85
2023-02-25T21:53:13.068Z,5.28
2023-02-25T21:55:39.728Z,6.10
2023-02-25T21:58:06.086Z,5.38
2023-02-25T22:00:32.478Z,5.20
2023-02-25T22:02:58.832Z,5.68
2023-02-25T22:05:25.159Z,5.90
2023-02-25T22:07:51.519Z,6.55
2023-02-25T22:10:18.057Z,6.85
2023-02-25T22:12:44.559Z,7.60
2023-02-25T22:15:11.052Z,8.15
2023-02-25T22:17:37.474Z,8.52
2023-02-25T22:20:04.557Z,6.75
2023-02-25T22:22:30.903Z,7.38
2023-02-25T22:24:57.318Z,6.47
2023-02-25T22:27:23.695Z,6.47
2023-02-25T22:29:50.048Z,8.43
2023-02-25T22:32:16.561Z,7.85
2023-02-25T22:34:43.001Z,8.60
2023-02-25T22:37:09.408Z,8.77
2023-02-25T22:39:35.781Z,10.75
2023-02-25T22:42:02.173Z,11.95
2023-02-25T22:44:28.501Z,12.02
2023-02-25T22:46:54.992Z,23.40
2023-02-25T22:49:21.561Z,49.78
2023-02-25T22:51:48.543Z,61.53
2023-02-25T22:54:16.027Z,37.53
2023-02-25T22:56:43.073Z,25.08
2023-02-25T22:59:10.021Z,27.90
2023-02-25T23:01:36.842Z,33.63
2023-02-25T23:04:03.361Z,34.95
2023-02-25T23:06:42.883Z,29.08
2023-02-25T23:09:10.715Z,26.92
2023-02-25T23:11:39.155Z,23.55
2023-02-25T23:14:05.528Z,16.92
2023-02-25T23:16:33.584Z,12.45
2023-02-25T23:19:01.312Z,11.80
2023-02-25T23:21:29.954Z,12.88
2023-02-25T23:23:57.244Z,9.50
2023-02-25T23:26:25.221Z,7.95
2023-02-25T23:28:55.884Z,7.38
2023-02-25T23:31:24.432Z,6.05
2023-02-25T23:33:53.943Z,4.85
2023-02-25T23:36:20.316Z,4.38
2023-02-25T23:38:47.012Z,4.88
2023-02-25T23:41:13.348Z,5.15
2023-02-25T23:43:39.698Z,5.00
2023-02-25T23:46:06.802Z,4.50
2023-02-25T23:48:33.290Z,3.60
2023-02-25T23:51:06.598Z,3.42
2023-02-25T23:53:33.566Z,2.38
2023-02-25T23:56:10.852Z,1.63
2023-02-25T23:58:37.562Z,2.08
